Time;durP1;ratioP1;P1;durP2;ratioP2;P2;SDS_P1;SDS_P2;PMS_P1;PMS_P2;Temp;Humidity;BMP_temperature;BMP_pressure;BME280_temperature;BME280_humidity;BME280_pressure;Samples;Min_cycle;Max_cycle;Signal;HPM_P1;HPM_P2
2021/07/12 00:00:25;;;;;;;16.88;13.27;;;16.20;99.90;;;;;;5010454;28;20124;-71
2021/07/12 00:02:54;;;;;;;16.58;13.02;;;16.10;99.90;;;;;;5011595;28;20036;-71
2021/07/12 00:05:19;;;;;;;18.45;13.25;;;16.10;99.90;;;;;;5027625;28;20055;-72
2021/07/12 00:07:45;;;;;;;16.70;12.43;;;16.10;99.90;;;;;;5059344;28;20033;-71
2021/07/12 00:10:16;;;;;;;17.60;12.80;;;16.10;99.90;;;;;;5010201;28;20044;-71
2021/07/12 00:12:44;;;;;;;18.73;13.18;;;16.10;99.90;;;;;;5028179;28;20037;-71
2021/07/12 00:15:10;;;;;;;17.42;13.68;;;16.10;99.90;;;;;;4996351;28;20053;-71
2021/07/12 00:17:36;;;;;;;24.75;13.40;;;16.10;99.90;;;;;;5027641;28;20044;-72
2021/07/12 00:20:04;;;;;;;16.90;13.45;;;16.00;99.90;;;;;;5025292;28;20888;-72
2021/07/12 00:22:32;;;;;;;19.48;13.15;;;16.00;99.90;;;;;;5026425;28;20021;-71
2021/07/12 00:24:57;;;;;;;26.58;14.13;;;16.00;99.90;;;;;;5060279;28;20074;-71
2021/07/12 00:27:26;;;;;;;20.50;12.43;;;15.90;99.90;;;;;;5026849;28;20924;-72
2021/07/12 00:29:52;;;;;;;19.92;14.27;;;15.90;99.90;;;;;;5027214;28;20040;-72
2021/07/12 00:32:18;;;;;;;18.38;13.73;;;15.90;99.90;;;;;;5026534;28;20029;-72
2021/07/12 00:34:46;;;;;;;16.88;13.13;;;15.90;99.90;;;;;;5027979;28;20131;-72
2021/07/12 00:37:11;;;;;;;17.45;12.52;;;15.90;99.90;;;;;;5026794;28;20040;-72
2021/07/12 00:39:39;;;;;;;17.85;12.57;;;15.90;99.90;;;;;;5025677;28;21507;-72
2021/07/12 00:42:10;;;;;;;18.40;13.40;;;15.90;99.90;;;;;;5027575;28;20037;-71
2021/07/12 00:44:36;;;;;;;15.35;12.43;;;15.90;99.90;;;;;;5028242;28;20104;-71
2021/07/12 00:47:01;;;;;;;16.05;12.77;;;15.90;99.90;;;;;;5027475;28;20488;-72
2021/07/12 00:49:27;;;;;;;16.45;12.90;;;15.90;99.90;;;;;;5009469;28;20177;-71
2021/07/12 00:51:54;;;;;;;16.63;12.20;;;15.80;99.90;;;;;;5027229;28;21848;-72
2021/07/12 00:54:19;;;;;;;17.77;12.20;;;15.80;99.90;;;;;;5028295;28;20513;-72
2021/07/12 00:56:45;;;;;;;18.92;12.90;;;15.80;99.90;;;;;;5027289;28;20060;-71
2021/07/12 00:59:10;;;;;;;17.80;12.68;;;15.80;99.90;;;;;;5059980;28;20029;-72
2021/07/12 01:01:38;;;;;;;14.57;12.20;;;15.80;99.90;;;;;;5025903;28;20033;-72
2021/07/12 01:04:04;;;;;;;19.60;12.82;;;15.70;99.90;;;;;;5027248;28;20033;-72
2021/07/12 01:06:29;;;;;;;16.10;12.85;;;15.80;99.90;;;;;;5025630;28;20025;-73
2021/07/12 01:08:55;;;;;;;17.90;12.57;;;15.70;99.90;;;;;;5027439;28;20366;-72
2021/07/12 01:11:42;;;;;;;20.98;12.57;;;15.80;99.90;;;;;;5027850;28;20097;-71
2021/07/12 01:14:48;;;;;;;17.27;12.18;;;15.80;99.90;;;;;;5027111;28;20029;-72
2021/07/12 01:17:32;;;;;;;15.73;12.60;;;15.70;99.90;;;;;;5026639;28;20037;-71
2021/07/12 01:20:15;;;;;;;16.10;11.73;;;15.70;99.90;;;;;;5026452;28;20125;-72
2021/07/12 01:22:43;;;;;;;14.77;11.63;;;15.70;99.90;;;;;;5025025;28;20029;-72
2021/07/12 01:25:49;;;;;;;16.80;11.07;;;15.70;99.90;;;;;;5026785;28;20052;-66
2021/07/12 01:28:36;;;;;;;15.02;11.45;;;15.70;99.90;;;;;;4344233;28;10000742;-66
2021/07/12 01:31:29;;;;;;;17.48;11.80;;;15.60;99.90;;;;;;5046655;28;20041;-66
2021/07/12 01:34:11;;;;;;;17.15;12.10;;;15.60;99.90;;;;;;5061802;28;20033;-66
2021/07/12 01:36:41;;;;;;;17.60;12.30;;;15.60;99.90;;;;;;5030424;28;20029;-66
2021/07/12 01:39:30;;;;;;;16.92;11.93;;;15.60;99.90;;;;;;5045361;28;20043;-66
2021/07/12 01:42:02;;;;;;;16.52;11.77;;;15.60;99.90;;;;;;5028881;28;20147;-66
2021/07/12 01:44:31;;;;;;;17.05;12.55;;;15.60;99.90;;;;;;5028396;28;20025;-66
2021/07/12 01:46:59;;;;;;;18.17;12.38;;;15.50;99.90;;;;;;5027614;28;21034;-66
2021/07/12 01:49:35;;;;;;;18.42;12.23;;;15.50;99.90;;;;;;5027182;28;20032;-66
2021/07/12 01:52:06;;;;;;;15.50;11.77;;;15.50;99.90;;;;;;5045967;28;20422;-65
2021/07/12 01:54:40;;;;;;;16.83;11.88;;;15.50;99.90;;;;;;5045588;28;20047;-66
2021/07/12 01:57:11;;;;;;;19.17;12.10;;;15.50;99.90;;;;;;5000031;28;20056;-65
2021/07/12 01:59:44;;;;;;;14.95;12.02;;;15.50;99.90;;;;;;5045792;28;20120;-66
2021/07/12 02:02:09;;;;;;;14.68;12.13;;;15.50;99.90;;;;;;5027574;28;20035;-66
2021/07/12 02:04:37;;;;;;;15.27;11.65;;;15.50;99.90;;;;;;5044701;28;20024;-66
2021/07/12 02:07:05;;;;;;;14.30;11.30;;;15.50;99.90;;;;;;5043494;28;20564;-66
2021/07/12 02:09:34;;;;;;;16.67;11.48;;;15.50;99.90;;;;;;5028083;28;20302;-66
2021/07/12 02:11:59;;;;;;;14.00;10.90;;;15.50;99.90;;;;;;5026446;28;20035;-66
2021/07/12 02:14:25;;;;;;;14.43;10.82;;;15.50;99.90;;;;;;5043446;28;20032;-66
2021/07/12 02:16:51;;;;;;;14.50;11.52;;;15.50;99.90;;;;;;5045142;28;20028;-66
2021/07/12 02:19:22;;;;;;;14.77;11.65;;;15.50;99.90;;;;;;5043984;28;20036;-66
2021/07/12 02:21:49;;;;;;;16.40;11.63;;;15.40;99.90;;;;;;5027534;28;20025;-66
2021/07/12 02:24:15;;;;;;;13.88;10.90;;;15.40;99.90;;;;;;5026856;28;20029;-66
2021/07/12 02:26:41;;;;;;;16.95;11.48;;;15.40;99.90;;;;;;5012017;28;20037;-66
2021/07/12 02:29:09;;;;;;;20.42;11.80;;;15.40;99.90;;;;;;5043865;28;20025;-67
2021/07/12 02:31:37;;;;;;;13.70;9.95;;;15.30;99.90;;;;;;4989639;28;20469;-66
2021/07/12 02:34:08;;;;;;;14.68;10.73;;;15.30;99.90;;;;;;5044532;28;20103;-67
2021/07/12 02:36:38;;;;;;;15.85;10.57;;;15.40;99.90;;;;;;5027689;28;20035;-66
2021/07/12 02:39:08;;;;;;;16.08;11.18;;;15.20;99.90;;;;;;5027339;28;20080;-66
2021/07/12 02:41:33;;;;;;;14.25;10.05;;;15.20;99.90;;;;;;5026707;28;20028;-66
2021/07/12 02:43:59;;;;;;;16.17;10.00;;;15.20;99.90;;;;;;5009950;28;20166;-66
2021/07/12 02:46:25;;;;;;;16.95;11.23;;;15.20;99.90;;;;;;5027572;28;20036;-66
2021/07/12 02:48:51;;;;;;;13.25;10.45;;;15.20;99.90;;;;;;5009487;28;20044;-66
2021/07/12 02:51:18;;;;;;;14.80;10.85;;;15.20;99.90;;;;;;5026602;28;20086;-67
2021/07/12 02:53:48;;;;;;;14.02;10.38;;;15.10;99.90;;;;;;5010999;28;20800;-66
2021/07/12 02:56:14;;;;;;;18.48;9.75;;;15.10;99.90;;;;;;5026854;28;20067;-66
2021/07/12 02:58:39;;;;;;;13.40;10.50;;;15.10;99.90;;;;;;5044508;28;20123;-66
2021/07/12 03:01:05;;;;;;;17.13;10.40;;;15.10;99.90;;;;;;5024623;28;20060;-66
2021/07/12 03:03:33;;;;;;;12.10;9.02;;;15.10;99.90;;;;;;5045352;28;20033;-66
2021/07/12 03:06:12;;;;;;;14.40;9.23;;;15.10;99.90;;;;;;5043835;28;20463;-66
2021/07/12 03:08:49;;;;;;;13.10;9.30;;;15.10;99.90;;;;;;5011738;28;20106;-66
2021/07/12 03:11:17;;;;;;;14.23;9.63;;;15.10;99.90;;;;;;5027428;28;20099;-66
2021/07/12 03:13:53;;;;;;;10.93;9.40;;;15.10;99.90;;;;;;5043446;28;20108;-67
2021/07/12 03:16:19;;;;;;;11.30;9.27;;;15.10;99.90;;;;;;5027669;28;20029;-66
2021/07/12 03:18:50;;;;;;;12.55;9.02;;;15.10;99.90;;;;;;5026669;28;20078;-66
2021/07/12 03:21:18;;;;;;;11.73;8.98;;;15.00;99.90;;;;;;5042523;28;20049;-66
2021/07/12 03:23:46;;;;;;;13.65;9.27;;;15.00;99.90;;;;;;5043429;28;20082;-66
2021/07/12 03:26:12;;;;;;;11.70;9.27;;;15.10;99.90;;;;;;5045923;28;20095;-66
2021/07/12 03:28:38;;;;;;;10.90;8.80;;;15.00;99.90;;;;;;5046501;28;20076;-66
2021/07/12 03:31:04;;;;;;;12.15;8.75;;;15.00;99.90;;;;;;5048766;28;20218;-66
2021/07/12 03:33:30;;;;;;;11.82;8.32;;;15.10;99.90;;;;;;5045625;28;20431;-67
2021/07/12 03:35:56;;;;;;;14.60;9.40;;;15.00;99.90;;;;;;5016383;28;20416;-66
2021/07/12 03:38:22;;;;;;;12.85;9.27;;;15.00;99.90;;;;;;5064464;28;20155;-66
2021/07/12 03:40:50;;;;;;;11.38;8.23;;;15.00;99.90;;;;;;5047290;28;20032;-66
2021/07/12 03:43:23;;;;;;;10.13;8.13;;;15.10;99.90;;;;;;5047459;28;20035;-66
2021/07/12 03:46:01;;;;;;;12.43;8.98;;;15.10;99.90;;;;;;5063981;28;20048;-66
2021/07/12 03:48:40;;;;;;;13.23;9.30;;;15.10;99.90;;;;;;5048359;28;20112;-66
2021/07/12 03:51:13;;;;;;;15.20;9.20;;;15.10;99.90;;;;;;5063524;28;20020;-66
2021/07/12 03:53:41;;;;;;;12.68;8.73;;;15.20;99.90;;;;;;5048061;28;20029;-66
2021/07/12 03:56:06;;;;;;;14.68;8.90;;;15.20;99.90;;;;;;5045892;28;20036;-65
2021/07/12 03:58:32;;;;;;;10.38;8.32;;;15.20;99.90;;;;;;5047389;28;20037;-66
2021/07/12 04:01:03;;;;;;;11.77;8.38;;;15.20;99.90;;;;;;5030678;28;20497;-66
2021/07/12 04:03:31;;;;;;;10.50;7.93;;;15.30;99.90;;;;;;5029369;28;20111;-66
2021/07/12 04:05:59;;;;;;;11.10;7.57;;;15.30;99.90;;;;;;5063070;28;20033;-67
2021/07/12 04:08:25;;;;;;;13.63;8.60;;;15.40;99.90;;;;;;5027941;28;20029;-67
2021/07/12 04:10:57;;;;;;;14.10;8.02;;;15.40;99.90;;;;;;5011808;28;20106;-66
2021/07/12 04:13:23;;;;;;;10.50;8.00;;;15.40;99.90;;;;;;5030030;28;20047;-67
2021/07/12 04:15:52;;;;;;;11.55;9.07;;;15.50;99.90;;;;;;5047803;28;20029;-66
2021/07/12 04:18:18;;;;;;;9.43;8.43;;;15.50;99.90;;;;;;5047433;28;20175;-66
2021/07/12 04:20:43;;;;;;;10.20;8.13;;;15.50;99.90;;;;;;5047400;28;20028;-66
2021/07/12 04:23:11;;;;;;;10.13;8.32;;;15.50;99.90;;;;;;5048258;28;20052;-67
2021/07/12 04:25:37;;;;;;;9.70;8.18;;;15.60;99.90;;;;;;5062260;28;20021;-67
2021/07/12 04:28:03;;;;;;;11.18;8.45;;;15.60;99.90;;;;;;5029639;28;20052;-67
2021/07/12 04:30:28;;;;;;;10.85;7.90;;;15.60;99.90;;;;;;5012784;28;20037;-67
2021/07/12 04:32:56;;;;;;;9.75;8.13;;;15.60;99.90;;;;;;5047846;28;20042;-66
2021/07/12 04:35:26;;;;;;;10.10;7.85;;;15.70;99.90;;;;;;5029511;28;20419;-66
2021/07/12 04:37:54;;;;;;;9.48;8.35;;;15.70;99.90;;;;;;5047030;28;20037;-66
2021/07/12 04:40:20;;;;;;;8.60;7.43;;;15.70;99.90;;;;;;5029535;28;20032;-66
2021/07/12 04:42:48;;;;;;;10.40;8.27;;;15.70;99.90;;;;;;5046570;28;20473;-67
2021/07/12 04:45:14;;;;;;;10.63;8.15;;;15.70;99.90;;;;;;5047129;28;20028;-66
2021/07/12 04:47:39;;;;;;;10.15;8.02;;;15.80;99.90;;;;;;5048573;28;20032;-67
2021/07/12 04:50:06;;;;;;;9.95;8.10;;;15.80;99.90;;;;;;5060946;28;20028;-67
2021/07/12 04:52:32;;;;;;;10.50;8.43;;;15.80;99.90;;;;;;5047761;28;20043;-66
2021/07/12 04:54:58;;;;;;;9.85;7.97;;;15.90;99.90;;;;;;5028978;28;20155;-67
2021/07/12 04:57:26;;;;;;;9.07;8.07;;;15.90;99.90;;;;;;5051075;28;20106;-67
2021/07/12 04:59:52;;;;;;;9.00;7.60;;;16.00;99.90;;;;;;5046967;28;20222;-66
2021/07/12 05:02:20;;;;;;;9.93;8.13;;;16.00;99.90;;;;;;5048378;28;20021;-66
2021/07/12 05:04:45;;;;;;;9.68;8.02;;;16.10;99.90;;;;;;5047433;28;20029;-67
2021/07/12 05:07:13;;;;;;;11.43;8.20;;;16.10;99.90;;;;;;5048177;28;20519;-66
2021/07/12 05:09:39;;;;;;;12.40;8.75;;;16.20;99.90;;;;;;5045574;28;20021;-67
2021/07/12 05:12:10;;;;;;;11.82;9.77;;;16.20;99.90;;;;;;5029799;28;20028;-65
2021/07/12 05:14:39;;;;;;;11.35;8.95;;;16.20;99.90;;;;;;5028105;28;20458;-65
2021/07/12 05:17:07;;;;;;;12.05;8.50;;;16.30;99.90;;;;;;5028734;28;20033;-65
2021/07/12 05:19:37;;;;;;;10.73;9.02;;;16.30;99.90;;;;;;5044687;28;20540;-65
2021/07/12 05:22:05;;;;;;;12.57;9.60;;;16.40;99.90;;;;;;5046411;28;20063;-65
2021/07/12 05:24:31;;;;;;;12.45;10.30;;;16.40;99.90;;;;;;5044732;28;20025;-65
2021/07/12 05:26:59;;;;;;;16.30;12.93;;;16.40;99.90;;;;;;5044763;28;20032;-65
2021/07/12 05:29:26;;;;;;;18.45;13.98;;;16.50;99.90;;;;;;5045952;28;20061;-65
2021/07/12 05:31:55;;;;;;;16.85;12.75;;;16.50;99.90;;;;;;5044709;28;20407;-65
2021/07/12 05:34:20;;;;;;;18.45;14.07;;;16.50;99.90;;;;;;5044809;28;20033;-65
2021/07/12 05:36:46;;;;;;;19.88;13.85;;;16.60;99.90;;;;;;5045058;28;20029;-65
2021/07/12 05:39:15;;;;;;;15.02;12.52;;;16.60;99.90;;;;;;5045850;28;20112;-65
2021/07/12 05:41:44;;;;;;;16.20;13.32;;;16.60;99.90;;;;;;5045622;28;20040;-65
2021/07/12 05:44:12;;;;;;;18.95;13.93;;;16.70;99.90;;;;;;5045681;28;20086;-65
2021/07/12 05:46:39;;;;;;;22.20;14.80;;;16.70;99.90;;;;;;5044332;28;20039;-65
2021/07/12 05:49:04;;;;;;;19.45;15.88;;;16.70;99.90;;;;;;5045528;28;20020;-65
2021/07/12 05:51:30;;;;;;;18.83;14.60;;;16.80;99.90;;;;;;5046126;28;20036;-65
2021/07/12 05:53:56;;;;;;;22.83;15.90;;;16.80;99.90;;;;;;5044695;28;20474;-64
2021/07/12 05:56:21;;;;;;;20.10;15.05;;;16.90;99.90;;;;;;5028381;28;20040;-65
2021/07/12 05:58:49;;;;;;;20.45;15.52;;;16.90;99.90;;;;;;5045629;28;20043;-65
2021/07/12 06:01:17;;;;;;;17.25;13.13;;;17.00;99.90;;;;;;5044779;28;20044;-65
2021/07/12 06:03:43;;;;;;;21.85;15.68;;;17.10;99.90;;;;;;5044800;28;20047;-65
2021/07/12 06:06:12;;;;;;;18.65;14.27;;;17.20;99.90;;;;;;5027813;28;21912;-65
2021/07/12 06:08:38;;;;;;;20.70;14.75;;;17.20;99.90;;;;;;5045317;28;20063;-65
2021/07/12 06:11:07;;;;;;;19.20;14.70;;;17.30;99.90;;;;;;5027749;28;20075;-65
2021/07/12 06:13:33;;;;;;;21.00;14.43;;;17.40;99.90;;;;;;5045466;28;20028;-65
2021/07/12 06:16:01;;;;;;;24.00;16.20;;;17.50;99.90;;;;;;5047334;28;20402;-65
2021/07/12 06:18:29;;;;;;;18.27;14.93;;;17.60;99.90;;;;;;5027339;28;20669;-65
2021/07/12 06:20:59;;;;;;;17.15;14.05;;;17.70;99.90;;;;;;5012409;28;20040;-65
2021/07/12 06:23:27;;;;;;;16.75;13.52;;;17.80;99.90;;;;;;5044517;28;20032;-65
2021/07/12 06:25:55;;;;;;;16.63;12.95;;;17.90;99.90;;;;;;5045057;28;20106;-67
2021/07/12 06:28:21;;;;;;;16.35;12.82;;;17.90;99.90;;;;;;5044863;28;20025;-65
2021/07/12 06:30:49;;;;;;;15.65;12.77;;;18.00;99.90;;;;;;5043345;28;20032;-68
2021/07/12 06:33:14;;;;;;;15.75;12.52;;;18.10;99.90;;;;;;5044162;28;20046;-68
2021/07/12 06:35:43;;;;;;;19.13;13.80;;;18.10;99.90;;;;;;5043944;28;20474;-65
2021/07/12 06:38:08;;;;;;;14.45;11.73;;;18.10;99.90;;;;;;5043032;28;20036;-65
2021/07/12 06:40:36;;;;;;;15.32;11.45;;;18.20;99.90;;;;;;5044599;28;20071;-65
2021/07/12 06:43:02;;;;;;;14.68;12.05;;;18.30;99.90;;;;;;5044274;28;20038;-65
2021/07/12 06:45:29;;;;;;;13.80;10.45;;;18.40;99.90;;;;;;5027633;28;20029;-65
2021/07/12 06:47:57;;;;;;;13.20;10.27;;;18.50;99.90;;;;;;5026443;28;20107;-65
2021/07/12 06:50:25;;;;;;;12.43;9.93;;;18.50;99.90;;;;;;5043802;28;20065;-65
2021/07/12 06:52:51;;;;;;;14.50;10.63;;;18.70;99.90;;;;;;5044249;28;20025;-66
2021/07/12 06:55:17;;;;;;;13.38;10.82;;;18.70;99.90;;;;;;5027277;28;20032;-65
2021/07/12 06:57:42;;;;;;;17.65;10.27;;;18.80;99.90;;;;;;5044623;28;20063;-65
2021/07/12 07:00:09;;;;;;;12.15;9.27;;;18.90;99.90;;;;;;5045585;28;20438;-67
2021/07/12 07:02:38;;;;;;;12.70;9.75;;;19.00;99.90;;;;;;5030623;28;20028;-67
2021/07/12 07:05:07;;;;;;;10.68;9.45;;;19.10;99.90;;;;;;5047501;28;20108;-67
2021/07/12 07:07:36;;;;;;;11.85;9.10;;;19.20;99.90;;;;;;5047827;28;20094;-66
2021/07/12 07:10:08;;;;;;;13.00;9.15;;;19.20;99.90;;;;;;5045699;28;20040;-65
2021/07/12 07:12:36;;;;;;;;;;;19.30;99.90;;;;;;5081439;28;20126;-65
2021/07/12 07:15:02;;;;;;;9.57;7.57;;;19.30;99.90;;;;;;5046673;28;19917;-66
2021/07/12 07:17:32;;;;;;;9.68;7.43;;;19.30;99.90;;;;;;5047545;28;20117;-65
2021/07/12 07:20:01;;;;;;;9.35;7.80;;;19.30;99.90;;;;;;5044877;28;20841;-66
2021/07/12 07:22:28;;;;;;;8.43;7.35;;;19.30;99.90;;;;;;5048658;28;20029;-69
2021/07/12 07:24:54;;;;;;;10.57;8.20;;;19.40;99.90;;;;;;5079057;28;20421;-65
2021/07/12 07:27:24;;;;;;;9.30;7.82;;;19.40;99.90;;;;;;5045947;28;20043;-65
2021/07/12 07:29:52;;;;;;;9.77;7.95;;;19.40;99.90;;;;;;5048268;28;21979;-68
2021/07/12 07:32:18;;;;;;;8.88;7.13;;;19.50;99.90;;;;;;5062834;28;20036;-68
2021/07/12 07:34:46;;;;;;;11.70;8.30;;;19.50;99.90;;;;;;5011791;28;20037;-68
2021/07/12 07:37:14;;;;;;;8.65;7.40;;;19.60;99.90;;;;;;5064115;28;20045;-68
2021/07/12 07:39:48;;;;;;;10.40;7.25;;;19.60;99.90;;;;;;5038592;28;20036;-68
2021/07/12 07:42:13;;;;;;;10.20;7.60;;;19.70;99.90;;;;;;5047587;28;20647;-68
2021/07/12 07:44:39;;;;;;;8.52;6.78;;;19.80;99.90;;;;;;5048103;28;20104;-67
2021/07/12 07:47:07;;;;;;;9.52;7.03;;;19.80;99.90;;;;;;5049814;28;20032;-68
2021/07/12 07:49:33;;;;;;;10.00;7.28;;;20.00;99.90;;;;;;5030830;28;20029;-68
2021/07/12 07:51:58;;;;;;;9.68;7.47;;;20.00;99.90;;;;;;5047237;28;20029;-68
2021/07/12 07:54:26;;;;;;;8.40;6.65;;;20.20;99.90;;;;;;5012577;28;20039;-68
2021/07/12 07:56:56;;;;;;;7.47;6.30;;;20.30;99.90;;;;;;5045606;28;20059;-67
2021/07/12 07:59:22;;;;;;;8.75;6.50;;;20.40;99.90;;;;;;5043884;28;20025;-68
2021/07/12 08:01:50;;;;;;;9.02;5.82;;;20.50;99.90;;;;;;5062223;28;20096;-68
2021/07/12 08:04:18;;;;;;;8.05;5.50;;;20.70;99.90;;;;;;5047055;28;20104;-68
2021/07/12 08:06:48;;;;;;;7.47;5.50;;;20.80;99.90;;;;;;5047167;28;20021;-68
2021/07/12 08:09:16;;;;;;;9.63;5.60;;;21.00;99.90;;;;;;5046322;28;20029;-68
2021/07/12 08:11:46;;;;;;;7.30;5.10;;;21.10;99.90;;;;;;5044172;28;21759;-69
2021/07/12 08:14:16;;;;;;;7.72;4.90;;;21.20;99.90;;;;;;5047473;28;20021;-68
2021/07/12 08:16:44;;;;;;;6.32;5.00;;;21.20;99.90;;;;;;5048003;28;20024;-69
2021/07/12 08:19:12;;;;;;;6.18;4.50;;;21.30;99.90;;;;;;5048963;28;20521;-68
2021/07/12 08:21:38;;;;;;;7.45;5.28;;;21.40;99.90;;;;;;5048539;28;20111;-68
2021/07/12 08:24:06;;;;;;;6.55;4.82;;;21.50;99.90;;;;;;5047482;28;20043;-68
2021/07/12 08:26:31;;;;;;;6.97;4.80;;;21.60;99.90;;;;;;5029031;28;20029;-68
2021/07/12 08:28:58;;;;;;;7.03;4.63;;;21.50;99.90;;;;;;5045990;28;20065;-68
2021/07/12 08:31:23;;;;;;;6.28;4.40;;;21.60;99.90;;;;;;5035555;28;20036;-68
2021/07/12 08:33:49;;;;;;;6.45;4.32;;;21.60;99.90;;;;;;5047702;28;20029;-68
2021/07/12 08:36:18;;;;;;;7.47;4.38;;;21.60;99.90;;;;;;5045498;28;20044;-68
2021/07/12 08:38:44;;;;;;;6.82;4.40;;;21.60;99.90;;;;;;5036306;28;20076;-68
2021/07/12 08:41:14;;;;;;;6.45;4.60;;;21.70;99.90;;;;;;5043926;28;20127;-68
2021/07/12 08:43:40;;;;;;;5.68;4.47;;;21.80;99.90;;;;;;5030578;28;20029;-68
2021/07/12 08:46:06;;;;;;;6.68;4.45;;;21.90;99.90;;;;;;5047089;28;20020;-68
2021/07/12 08:48:32;;;;;;;6.20;4.45;;;22.00;99.90;;;;;;5046081;28;20025;-68
2021/07/12 08:50:57;;;;;;;7.68;4.68;;;22.10;99.90;;;;;;5046954;28;20040;-68
2021/07/12 08:53:23;;;;;;;6.63;4.20;;;22.20;99.90;;;;;;5047176;28;20059;-68
2021/07/12 08:55:49;;;;;;;6.63;4.68;;;22.20;99.90;;;;;;5045946;28;20037;-68
2021/07/12 08:58:21;;;;;;;7.15;4.50;;;22.30;99.90;;;;;;5015154;28;20053;-69
2021/07/12 09:01:19;;;;;;;6.55;4.15;;;22.40;99.90;;;;;;5028258;28;20033;-68
2021/07/12 09:03:51;;;;;;;7.25;4.18;;;22.40;99.90;;;;;;4323554;28;10000798;-67
2021/07/12 09:06:25;;;;;;;7.90;4.30;;;22.40;99.90;;;;;;5045959;28;20052;-68
2021/07/12 09:08:52;;;;;;;9.88;4.57;;;22.50;99.90;;;;;;5045100;28;20037;-68
2021/07/12 09:11:28;;;;;;;7.10;4.40;;;22.50;99.90;;;;;;5027414;28;20028;-68
2021/07/12 09:14:07;;;;;;;6.88;4.10;;;22.50;99.90;;;;;;5044408;28;20033;-71
2021/07/12 09:16:39;;;;;;;5.80;3.90;;;22.50;99.90;;;;;;5045262;28;20032;-70
2021/07/12 09:19:11;;;;;;;6.13;4.15;;;22.60;99.90;;;;;;5044598;28;20036;-68
2021/07/12 09:21:57;;;;;;;6.57;3.90;;;22.50;99.90;;;;;;5060900;28;20055;-68
2021/07/12 09:24:52;;;;;;;9.48;4.38;;;22.50;99.90;;;;;;5046179;28;20060;-69
2021/07/12 09:27:31;;;;;;;5.38;4.13;;;22.60;99.90;;;;;;4682299;28;10000518;-68
2021/07/12 09:30:19;;;;;;;5.45;4.15;;;22.70;99.90;;;;;;5044265;28;20033;-66
2021/07/12 09:32:46;;;;;;;5.30;3.72;;;22.60;99.90;;;;;;5046451;28;20099;-65
2021/07/12 09:35:18;;;;;;;8.27;4.10;;;22.70;99.90;;;;;;5015504;28;20044;-67
2021/07/12 09:37:48;;;;;;;7.32;4.28;;;22.70;99.90;;;;;;5058316;28;20114;-67
2021/07/12 09:40:17;;;;;;;5.75;3.42;;;22.80;99.90;;;;;;5027610;28;20038;-66
2021/07/12 09:42:46;;;;;;;7.25;3.72;;;22.80;99.90;;;;;;5026084;28;20025;-67
2021/07/12 09:45:13;;;;;;;7.22;3.85;;;22.70;99.90;;;;;;5030387;28;20040;-66
2021/07/12 09:47:41;;;;;;;6.43;3.78;;;22.90;99.90;;;;;;5059170;28;20029;-67
2021/07/12 09:50:10;;;;;;;5.38;3.20;;;23.00;99.90;;;;;;5044307;28;20039;-67
2021/07/12 09:53:04;;;;;;;4.97;3.20;;;22.90;99.90;;;;;;5042865;28;20043;-67
2021/07/12 09:55:35;;;;;;;6.55;3.47;;;23.00;99.90;;;;;;5043508;28;20144;-67
2021/07/12 09:58:20;;;;;;;5.27;2.90;;;22.90;99.90;;;;;;5043826;28;20060;-67
2021/07/12 10:00:51;;;;;;;5.07;3.03;;;23.00;99.90;;;;;;5044856;28;20044;-67
2021/07/12 10:03:20;;;;;;;5.18;2.90;;;23.00;99.90;;;;;;5043722;28;20635;-69
2021/07/12 10:05:48;;;;;;;5.68;3.80;;;23.20;99.90;;;;;;5045041;28;20071;-69
2021/07/12 10:08:17;;;;;;;6.85;3.00;;;23.30;99.90;;;;;;5044010;28;20036;-67
2021/07/12 10:10:43;;;;;;;5.63;3.15;;;23.30;99.90;;;;;;5043184;28;20098;-67
2021/07/12 10:13:11;;;;;;;5.75;3.10;;;23.20;99.90;;;;;;5043955;28;20029;-66
2021/07/12 10:15:39;;;;;;;4.60;2.92;;;23.30;99.90;;;;;;4989167;28;20537;-67
2021/07/12 10:18:05;;;;;;;5.60;3.13;;;23.10;99.90;;;;;;5043468;28;20043;-67
2021/07/12 10:20:33;;;;;;;4.78;2.85;;;23.00;99.90;;;;;;5026451;28;20115;-67
2021/07/12 10:23:05;;;;;;;4.15;2.63;;;23.00;99.90;;;;;;5010262;28;20025;-67
2021/07/12 10:25:31;;;;;;;;;;;23.10;99.90;;;;;;5040966;28;20694;-67
2021/07/12 10:28:01;;;;;;;5.38;2.80;;;23.10;99.90;;;;;;5044001;28;19912;-69
2021/07/12 10:30:30;;;;;;;5.63;2.90;;;23.10;99.90;;;;;;5026028;28;20033;-67
2021/07/12 10:33:11;;;;;;;4.88;3.25;;;23.00;99.90;;;;;;5044129;28;20043;-67
2021/07/12 10:35:41;;;;;;;;;;;23.00;99.90;;;;;;5009626;28;20656;-67
2021/07/12 10:38:09;;;;;;;5.15;3.22;;;23.00;99.90;;;;;;5042804;28;20030;-68
2021/07/12 10:41:01;;;;;;;4.80;2.80;;;22.90;99.90;;;;;;5026484;28;20032;-67
2021/07/12 10:43:42;;;;;;;5.30;3.13;;;22.90;99.90;;;;;;5040477;28;20060;-67
2021/07/12 10:46:10;;;;;;;6.10;3.30;;;22.90;99.90;;;;;;5042538;28;20036;-67
2021/07/12 10:48:37;;;;;;;5.00;3.25;;;22.80;99.90;;;;;;5058166;28;20021;-67
2021/07/12 10:51:20;;;;;;;4.57;2.90;;;22.80;99.90;;;;;;5043076;28;20025;-67
2021/07/12 10:54:14;;;;;;;5.28;2.92;;;22.70;99.90;;;;;;5042490;28;20569;-66
2021/07/12 10:56:59;;;;;;;5.55;3.05;;;22.60;99.90;;;;;;5044052;28;20044;-67
2021/07/12 10:59:35;;;;;;;5.07;3.20;;;22.60;99.90;;;;;;5045063;28;20025;-69
2021/07/12 11:02:13;;;;;;;5.45;3.60;;;22.60;99.90;;;;;;5031708;28;20056;-67
2021/07/12 11:04:52;;;;;;;5.32;3.20;;;22.50;99.90;;;;;;5058016;28;20059;-67
2021/07/12 11:07:37;;;;;;;5.32;3.00;;;22.60;99.90;;;;;;5018990;28;20090;-67
2021/07/12 11:10:06;;;;;;;4.63;2.90;;;22.60;99.90;;;;;;5026395;28;20112;-66
2021/07/12 11:12:48;;;;;;;5.63;2.83;;;22.60;99.90;;;;;;5019428;28;20660;-67
2021/07/12 11:15:23;;;;;;;4.20;2.92;;;22.70;99.90;;;;;;5059362;28;20033;-67
2021/07/12 11:17:50;;;;;;;4.75;2.85;;;22.70;99.90;;;;;;5043632;28;20052;-67
2021/07/12 11:20:17;;;;;;;5.95;2.80;;;22.80;99.90;;;;;;5044435;28;20033;-67
2021/07/12 11:22:57;;;;;;;7.35;2.90;;;22.90;99.90;;;;;;5024875;28;20025;-66
2021/07/12 11:25:45;;;;;;;5.10;2.90;;;22.90;96.60;;;;;;5043078;28;20805;-67
2021/07/12 11:28:14;;;;;;;5.00;2.88;;;22.90;99.90;;;;;;5043778;28;20021;-67
2021/07/12 11:30:40;;;;;;;6.47;3.40;;;23.00;99.90;;;;;;5045452;28;20081;-66
2021/07/12 11:33:08;;;;;;;5.22;2.80;;;23.10;99.90;;;;;;4997589;28;20595;-67
2021/07/12 11:35:36;;;;;;;4.45;2.70;;;23.10;99.90;;;;;;5042387;28;20079;-67
2021/07/12 11:38:04;;;;;;;5.40;2.90;;;23.10;99.90;;;;;;5043938;28;20028;-66
2021/07/12 11:40:30;;;;;;;4.97;3.20;;;23.20;99.90;;;;;;5027250;28;20039;-67
2021/07/12 11:43:00;;;;;;;5.07;2.60;;;23.30;99.90;;;;;;5058301;28;20017;-66
2021/07/12 11:45:28;;;;;;;6.30;2.90;;;23.40;96.00;;;;;;5060452;28;20024;-67
2021/07/12 11:48:00;;;;;;;5.00;2.72;;;23.50;99.90;;;;;;5030385;28;20037;-67
2021/07/12 11:50:31;;;;;;;4.78;2.67;;;23.60;99.90;;;;;;5047779;28;20029;-67
2021/07/12 11:52:58;;;;;;;4.95;2.80;;;23.80;99.90;;;;;;5028678;28;20037;-67
2021/07/12 11:55:31;;;;;;;7.07;3.20;;;23.80;97.20;;;;;;5047802;28;20064;-68
2021/07/12 11:58:02;;;;;;;4.57;2.75;;;23.70;99.90;;;;;;4697071;28;10000188;-67
2021/07/12 12:00:30;;;;;;;6.38;2.83;;;23.80;99.90;;;;;;5045659;28;20032;-67
2021/07/12 12:03:02;;;;;;;4.80;2.80;;;23.70;99.90;;;;;;5047084;28;20447;-67
2021/07/12 12:05:28;;;;;;;3.70;2.53;;;23.70;99.90;;;;;;5027788;28;20021;-67
2021/07/12 12:07:58;;;;;;;4.13;2.72;;;23.60;95.30;;;;;;5031043;28;20056;-67
2021/07/12 12:10:24;;;;;;;4.88;2.75;;;23.60;95.50;;;;;;5043715;28;20044;-67
2021/07/12 12:12:51;;;;;;;4.88;2.95;;;23.60;95.30;;;;;;5046659;28;20032;-67
2021/07/12 12:15:31;;;;;;;4.10;2.80;;;23.70;99.90;;;;;;5030372;28;20473;-66
2021/07/12 12:18:00;;;;;;;4.88;2.72;;;23.80;99.90;;;;;;5061628;28;20077;-66
2021/07/12 12:20:28;;;;;;;3.95;2.70;;;23.90;99.90;;;;;;5046024;28;20063;-71
2021/07/12 12:22:59;;;;;;;5.43;2.97;;;24.00;99.90;;;;;;5047201;28;20037;-73
2021/07/12 12:25:25;;;;;;;5.15;3.03;;;23.90;92.20;;;;;;5026362;28;20040;-71
2021/07/12 12:27:53;;;;;;;8.35;7.03;;;23.90;95.20;;;;;;5028508;28;20036;-67
2021/07/12 12:30:22;;;;;;;6.30;2.90;;;24.10;99.90;;;;;;5044860;28;20033;-67
2021/07/12 12:32:56;;;;;;;4.80;2.97;;;24.10;99.90;;;;;;5029498;28;20138;-67
2021/07/12 12:35:23;;;;;;;5.82;3.20;;;24.20;99.80;;;;;;5046495;28;20713;-67
2021/07/12 12:37:52;;;;;;;4.63;3.00;;;24.20;98.40;;;;;;5026192;28;20029;-67
2021/07/12 12:40:25;;;;;;;4.95;3.05;;;24.40;99.90;;;;;;5028771;28;20036;-67
2021/07/12 12:42:53;;;;;;;4.90;3.10;;;24.60;99.90;;;;;;5029026;28;20021;-67
2021/07/12 12:45:31;;;;;;;5.22;2.90;;;24.70;99.70;;;;;;5046828;28;20361;-67
2021/07/12 12:47:59;;;;;;;4.10;2.83;;;24.60;99.90;;;;;;5061272;28;20135;-67
2021/07/12 12:50:26;;;;;;;5.25;3.13;;;24.80;99.90;;;;;;5044688;28;21527;-67